createdAt,value
2023-05-08T00:00:05.197Z,20.43
2023-05-08T00:02:33.832Z,21.20
2023-05-08T00:05:03.892Z,22.00
2023-05-08T00:07:32.708Z,22.40
2023-05-08T00:10:01.528Z,22.60
2023-05-08T00:12:29.837Z,21.53
2023-05-08T00:14:58.559Z,21.87
2023-05-08T00:17:27.159Z,22.60
2023-05-08T00:19:55.495Z,22.73
2023-05-08T00:22:25.237Z,22.50
2023-05-08T00:24:53.613Z,21.77
2023-05-08T00:27:22.114Z,21.40
2023-05-08T00:29:51.056Z,23.20
2023-05-08T00:32:19.617Z,22.43
2023-05-08T00:34:48.210Z,23.50
2023-05-08T00:37:16.866Z,22.40
2023-05-08T00:39:46.691Z,22.87
2023-05-08T00:42:15.050Z,22.50
2023-05-08T00:44:43.447Z,21.97
2023-05-08T00:47:11.797Z,22.77
2023-05-08T00:49:40.868Z,22.70
2023-05-08T00:52:09.717Z,22.30
2023-05-08T00:54:39.490Z,22.80
2023-05-08T00:57:10.031Z,21.83
2023-05-08T00:59:38.977Z,22.47
2023-05-08T01:02:07.264Z,20.60
2023-05-08T01:04:36.693Z,22.90
2023-05-08T01:07:05.119Z,21.53
2023-05-08T01:09:35.289Z,21.47
2023-05-08T01:12:14.809Z,22.63
2023-05-08T01:14:54.665Z,22.87
2023-05-08T01:17:30.920Z,22.20
2023-05-08T01:20:18.443Z,22.23
2023-05-08T01:23:18.349Z,21.57
2023-05-08T01:26:16.399Z,21.43
2023-05-08T01:29:09.023Z,21.80
2023-05-08T01:31:52.929Z,22.67
2023-05-08T01:34:27.143Z,20.87
2023-05-08T01:37:02.178Z,22.40
2023-05-08T01:39:40.601Z,22.93
2023-05-08T01:42:12.779Z,22.10
2023-05-08T01:44:46.467Z,22.83
2023-05-08T01:47:16.912Z,22.60
2023-05-08T01:49:49.960Z,21.93
2023-05-08T01:52:26.273Z,21.23
2023-05-08T01:55:02.882Z,21.90
2023-05-08T01:57:34.400Z,22.53
2023-05-08T02:00:04.868Z,21.40
2023-05-08T02:02:38.648Z,21.63
2023-05-08T02:05:12.015Z,21.83
2023-05-08T02:07:42.510Z,23.00
2023-05-08T02:10:13.025Z,22.43
2023-05-08T02:12:42.407Z,22.80
2023-05-08T02:15:14.719Z,23.10
2023-05-08T02:17:44.995Z,22.13
2023-05-08T02:20:16.163Z,22.03
2023-05-08T02:22:46.368Z,22.10
2023-05-08T02:25:16.294Z,22.77
2023-05-08T02:27:46.546Z,22.50
2023-05-08T02:30:16.052Z,23.40
2023-05-08T02:32:46.054Z,22.93
2023-05-08T02:35:17.693Z,22.37
2023-05-08T02:37:49.135Z,21.50
2023-05-08T02:40:19.610Z,22.77
2023-05-08T02:42:48.120Z,22.60
2023-05-08T02:45:16.771Z,21.27
2023-05-08T02:47:54.190Z,20.77
2023-05-08T02:50:31.238Z,22.40
2023-05-08T02:53:04.849Z,21.80
2023-05-08T02:55:38.859Z,21.33
2023-05-08T02:58:15.945Z,22.50
2023-05-08T03:00:48.620Z,21.20
2023-05-08T03:03:24.134Z,22.90
2023-05-08T03:05:58.018Z,21.00
2023-05-08T03:08:30.997Z,20.03
2023-05-08T03:11:02.955Z,22.30
2023-05-08T03:13:35.190Z,20.90
2023-05-08T03:16:07.531Z,22.43
2023-05-08T03:18:43.188Z,21.20
2023-05-08T03:21:15.238Z,21.73
2023-05-08T03:23:44.593Z,22.87
2023-05-08T03:26:19.476Z,21.10
2023-05-08T03:28:50.185Z,21.23
2023-05-08T03:31:21.392Z,22.93
2023-05-08T03:33:53.348Z,21.83
2023-05-08T03:36:26.963Z,21.67
2023-05-08T03:38:56.718Z,21.17
2023-05-08T03:41:26.972Z,21.07
2023-05-08T03:43:56.203Z,21.13
2023-05-08T03:46:25.387Z,21.93
2023-05-08T03:48:55.593Z,22.93
2023-05-08T03:51:25.887Z,22.20
2023-05-08T03:53:54.385Z,21.90
2023-05-08T03:56:24.684Z,23.40
2023-05-08T03:58:58.208Z,21.53
2023-05-08T04:01:40.776Z,17.30
2023-05-08T04:04:15.996Z,15.17
2023-05-08T04:06:52.635Z,14.50
2023-05-08T04:09:32.571Z,13.23
2023-05-08T04:12:04.664Z,14.67
2023-05-08T04:14:39.305Z,15.50
2023-05-08T04:17:11.546Z,14.50
2023-05-08T04:19:46.315Z,14.60
2023-05-08T04:22:22.107Z,14.00
2023-05-08T04:24:52.750Z,14.40
2023-05-08T04:27:21.693Z,13.33
2023-05-08T04:29:50.170Z,13.97
2023-05-08T04:32:18.872Z,14.93
2023-05-08T04:34:47.544Z,14.17
2023-05-08T04:37:26.936Z,20.20
2023-05-08T04:39:56.536Z,21.50
2023-05-08T04:42:26.126Z,20.27
2023-05-08T04:44:56.512Z,24.30
2023-05-08T04:47:25.069Z,22.03
2023-05-08T04:49:53.622Z,20.23
2023-05-08T04:52:22.108Z,21.80
2023-05-08T04:54:51.844Z,20.10
2023-05-08T04:57:20.471Z,21.67
2023-05-08T04:59:48.887Z,21.33
2023-05-08T05:02:17.049Z,20.87
2023-05-08T05:04:45.533Z,20.70
2023-05-08T05:07:13.841Z,21.43
2023-05-08T05:09:42.215Z,20.97
2023-05-08T05:12:11.962Z,21.50
2023-05-08T05:14:40.463Z,18.97
2023-05-08T05:17:09.129Z,20.37
2023-05-08T05:19:37.588Z,20.80
2023-05-08T05:22:06.410Z,20.07
2023-05-08T05:24:36.104Z,21.20
2023-05-08T05:27:04.546Z,20.20
2023-05-08T05:29:34.636Z,20.83
2023-05-08T05:32:03.497Z,19.40
2023-05-08T05:34:31.781Z,20.30
2023-05-08T05:37:00.183Z,19.20
2023-05-08T05:39:28.535Z,20.13
2023-05-08T05:41:56.964Z,20.20
2023-05-08T05:44:25.739Z,19.93
2023-05-08T05:46:55.738Z,19.23
2023-05-08T05:49:24.164Z,18.03
2023-05-08T05:51:52.928Z,19.37
2023-05-08T05:54:21.523Z,18.57
2023-05-08T05:56:49.996Z,18.50
2023-05-08T05:59:18.463Z,19.97
2023-05-08T06:01:47.326Z,19.00
2023-05-08T06:04:16.885Z,19.40
2023-05-08T06:06:47.485Z,19.20
2023-05-08T06:09:17.100Z,18.73
2023-05-08T06:11:45.611Z,21.63
2023-05-08T06:14:14.032Z,19.77
2023-05-08T06:16:42.875Z,18.80
2023-05-08T06:19:11.194Z,19.93
2023-05-08T06:21:41.110Z,18.57
2023-05-08T06:24:09.454Z,20.13
2023-05-08T06:26:37.839Z,19.87
2023-05-08T06:29:06.290Z,20.60
2023-05-08T06:31:34.884Z,20.70
2023-05-08T06:34:03.305Z,20.33
2023-05-08T06:36:32.028Z,19.83
2023-05-08T06:39:01.753Z,19.90
2023-05-08T06:41:30.200Z,19.10
2023-05-08T06:43:58.592Z,19.97
2023-05-08T06:46:27.022Z,20.00
2023-05-08T06:48:55.284Z,19.70
2023-05-08T06:51:23.689Z,19.00
2023-05-08T06:53:51.884Z,19.83
2023-05-08T06:56:24.684Z,19.60
2023-05-08T06:59:01.015Z,19.53
2023-05-08T07:01:33.273Z,18.10
2023-05-08T07:04:01.693Z,19.13
2023-05-08T07:06:30.870Z,19.90
2023-05-08T07:08:59.220Z,20.87
2023-05-08T07:11:28.934Z,20.10
2023-05-08T07:13:57.324Z,20.07
2023-05-08T07:16:25.624Z,19.83
2023-05-08T07:18:53.806Z,20.10
2023-05-08T07:21:21.896Z,20.30
2023-05-08T07:23:53.838Z,19.90
2023-05-08T07:26:22.727Z,19.50
2023-05-08T07:28:54.206Z,20.37
2023-05-08T07:31:22.871Z,18.83
2023-05-08T07:33:51.357Z,20.23
2023-05-08T07:36:19.586Z,19.10
2023-05-08T07:38:47.911Z,20.00
2023-05-08T07:41:16.152Z,19.10
2023-05-08T07:43:45.258Z,20.97
2023-05-08T07:46:26.345Z,19.10
2023-05-08T07:48:54.571Z,19.63
2023-05-08T07:51:22.952Z,19.20
2023-05-08T07:53:51.734Z,19.47
2023-05-08T07:56:19.988Z,19.77
2023-05-08T07:58:48.080Z,18.53
2023-05-08T08:01:17.919Z,19.27
2023-05-08T08:03:50.153Z,18.53
2023-05-08T08:06:18.580Z,18.50
2023-05-08T08:08:47.799Z,18.47
2023-05-08T08:11:18.039Z,18.63
2023-05-08T08:13:46.224Z,19.03
2023-05-08T08:16:14.583Z,18.30
2023-05-08T08:18:42.686Z,18.80
2023-05-08T08:21:14.542Z,19.00
2023-05-08T08:23:42.776Z,18.33
2023-05-08T08:26:10.974Z,19.23
2023-05-08T08:28:39.211Z,19.20
2023-05-08T08:31:09.639Z,18.40
2023-05-08T08:33:37.849Z,19.17
2023-05-08T08:36:06.605Z,18.40
2023-05-08T08:38:36.322Z,18.40
2023-05-08T08:41:06.679Z,20.93
2023-05-08T08:43:39.807Z,18.50
2023-05-08T08:46:14.719Z,18.80
2023-05-08T08:48:46.118Z,18.57
2023-05-08T08:51:19.964Z,19.10
2023-05-08T08:53:59.973Z,19.03
2023-05-08T08:56:28.838Z,18.60
2023-05-08T08:59:01.250Z,17.83
2023-05-08T09:01:36.128Z,18.27
2023-05-08T09:04:05.415Z,17.27
2023-05-08T09:06:37.059Z,18.23
2023-05-08T09:09:06.886Z,18.27
2023-05-08T09:11:36.571Z,18.10
2023-05-08T09:14:06.962Z,17.83
2023-05-08T09:16:36.032Z,17.70
2023-05-08T09:19:04.887Z,18.47
2023-05-08T09:21:34.039Z,18.13
2023-05-08T09:24:03.570Z,18.50
2023-05-08T09:26:35.228Z,18.17
2023-05-08T09:29:16.619Z,17.50
2023-05-08T09:31:46.621Z,17.90
2023-05-08T09:34:27.251Z,17.70
2023-05-08T09:37:11.660Z,17.67
2023-05-08T09:39:41.421Z,18.50
2023-05-08T09:42:12.969Z,18.80
2023-05-08T09:44:49.581Z,17.80
2023-05-08T09:47:22.836Z,18.23
2023-05-08T09:50:01.155Z,17.80
2023-05-08T09:52:31.186Z,18.10
2023-05-08T09:55:02.829Z,18.60
2023-05-08T09:57:36.376Z,18.50
2023-05-08T10:00:10.165Z,18.80
2023-05-08T10:02:40.458Z,20.50
2023-05-08T10:09:56.368Z,19.27
2023-05-08T10:34:06.166Z,18.33
2023-05-08T10:40:09.174Z,18.57
2023-05-08T10:43:15.774Z,18.40
2023-05-08T10:49:27.573Z,18.00
2023-05-08T10:52:32.652Z,18.90
2023-05-08T11:15:50.031Z,19.10
2023-05-08T11:21:51.684Z,18.60
2023-05-08T11:24:43.398Z,19.70
2023-05-08T11:31:26.462Z,19.17
2023-05-08T11:42:07.281Z,20.00
2023-05-08T11:44:57.490Z,20.50
2023-05-08T11:54:24.348Z,19.63
2023-05-08T11:57:52.384Z,20.30
2023-05-08T12:12:57.704Z,20.23
2023-05-08T12:19:31.222Z,20.00
2023-05-08T12:28:37.316Z,18.53
2023-05-08T12:31:20.298Z,18.60
2023-05-08T12:33:55.592Z,19.33
2023-05-08T12:40:05.153Z,20.60
2023-05-08T12:43:16.713Z,18.83
2023-05-08T12:46:19.213Z,19.43
2023-05-08T12:49:07.541Z,18.97
2023-05-08T13:07:30.192Z,18.00
2023-05-08T13:10:10.887Z,17.63
2023-05-08T13:12:56.022Z,18.90
2023-05-08T13:21:49.517Z,18.53
2023-05-08T13:24:40.215Z,19.30
2023-05-08T13:27:29.620Z,18.70
2023-05-08T13:30:09.497Z,21.30
2023-05-08T13:33:00.795Z,18.67
2023-05-08T13:35:51.941Z,18.40
2023-05-08T13:38:44.506Z,19.40
2023-05-08T13:41:26.198Z,19.27
2023-05-08T13:43:54.470Z,19.40
2023-05-08T13:46:27.836Z,19.20
2023-05-08T13:49:08.099Z,19.27
2023-05-08T13:51:57.984Z,18.93
2023-05-08T13:54:44.982Z,18.87
2023-05-08T13:57:19.070Z,18.97
2023-05-08T14:00:12.297Z,19.37
2023-05-08T14:02:44.445Z,19.20
2023-05-08T14:18:05.599Z,19.63
2023-05-08T14:20:57.329Z,20.10
2023-05-08T14:23:48.957Z,18.90
2023-05-08T15:07:39.504Z,19.00
2023-05-08T15:10:37.065Z,17.50
2023-05-08T15:13:28.884Z,20.20
2023-05-08T15:16:23.619Z,17.40
2023-05-08T15:19:22.993Z,17.77
2023-05-08T15:21:57.868Z,18.03
2023-05-08T15:24:51.651Z,18.03
2023-05-08T15:27:56.792Z,18.33
2023-05-08T15:30:44.693Z,18.57
2023-05-08T15:34:41.566Z,17.77
2023-05-08T15:37:33.544Z,17.57
2023-05-08T15:40:28.498Z,18.17
2023-05-08T15:43:26.311Z,18.27
2023-05-08T15:46:18.020Z,17.13
2023-05-08T15:49:36.280Z,19.20
2023-05-08T15:52:26.428Z,17.97
2023-05-08T15:55:12.058Z,18.53
2023-05-08T15:58:17.965Z,18.87
2023-05-08T16:01:32.265Z,17.83
2023-05-08T16:04:26.440Z,18.63
2023-05-08T16:07:40.142Z,18.73
2023-05-08T16:10:49.583Z,17.90
2023-05-08T16:13:45.989Z,18.67
2023-05-08T16:16:53.611Z,18.07
2023-05-08T16:19:38.051Z,18.10
2023-05-08T16:22:23.602Z,18.83
2023-05-08T16:24:55.142Z,17.70
2023-05-08T16:27:42.680Z,18.43
2023-05-08T16:30:34.510Z,17.57
2023-05-08T16:33:26.954Z,18.00
2023-05-08T16:36:00.637Z,17.87
2023-05-08T16:38:48.432Z,17.53
2023-05-08T16:41:36.308Z,18.10
2023-05-08T16:44:39.557Z,17.73
2023-05-08T16:47:25.281Z,17.83
2023-05-08T16:50:00.585Z,17.97
2023-05-08T16:52:41.078Z,18.33
2023-05-08T16:55:48.858Z,17.67
2023-05-08T16:58:37.401Z,18.30
2023-05-08T17:01:54.658Z,18.27
2023-05-08T17:04:50.973Z,19.00
2023-05-08T17:07:33.105Z,18.97
2023-05-08T17:10:22.959Z,18.27
2023-05-08T17:13:05.237Z,18.67
2023-05-08T17:16:10.964Z,19.20
2023-05-08T17:24:49.621Z,19.00
2023-05-08T17:30:38.054Z,18.83
2023-05-08T17:36:57.123Z,17.57
2023-05-08T17:39:56.550Z,18.43
2023-05-08T17:42:55.949Z,18.57
2023-05-08T17:45:55.748Z,19.40
2023-05-08T17:48:47.711Z,20.47
2023-05-08T17:51:43.785Z,17.60
2023-05-08T17:54:19.537Z,18.47
2023-05-08T17:57:13.497Z,19.20
2023-05-08T18:00:31.482Z,19.50
2023-05-08T18:03:44.871Z,21.50
2023-05-08T18:14:42.249Z,21.40
2023-05-08T18:31:25.285Z,21.53
2023-05-08T19:14:57.428Z,19.90
2023-05-08T19:28:58.466Z,21.30
2023-05-08T20:02:03.020Z,21.13
2023-05-08T20:05:21.911Z,18.60
2023-05-08T20:08:14.571Z,20.07
2023-05-08T20:11:03.409Z,20.13
2023-05-08T20:16:42.422Z,20.50
2023-05-08T21:00:27.094Z,22.17
2023-05-08T21:03:12.642Z,22.20
2023-05-08T21:06:01.813Z,21.23
2023-05-08T21:08:40.886Z,21.53
2023-05-08T21:11:18.807Z,21.43
2023-05-08T21:13:59.338Z,22.90
2023-05-08T21:16:38.935Z,20.60
2023-05-08T21:19:17.752Z,20.83
2023-05-08T21:21:55.544Z,21.57
2023-05-08T21:24:33.682Z,22.07
2023-05-08T21:27:13.371Z,21.07
2023-05-08T21:29:50.839Z,21.40
2023-05-08T21:32:34.758Z,21.97
2023-05-08T21:35:14.681Z,21.53
2023-05-08T21:37:57.612Z,21.30
2023-05-08T21:40:47.636Z,20.73
2023-05-08T21:43:24.430Z,20.47
2023-05-08T21:45:59.305Z,20.33
2023-05-08T21:48:40.464Z,20.87
2023-05-08T21:51:27.071Z,20.40
2023-05-08T21:54:09.455Z,22.10
2023-05-08T21:56:38.120Z,20.50
2023-05-08T21:59:08.569Z,20.73
2023-05-08T22:02:03.591Z,20.60
2023-05-08T22:04:51.000Z,19.63
2023-05-08T22:07:58.563Z,20.47
2023-05-08T22:10:35.122Z,20.70
2023-05-08T22:13:16.836Z,21.67
2023-05-08T22:16:02.571Z,19.93
2023-05-08T22:18:34.293Z,20.70
2023-05-08T22:21:31.511Z,20.63
2023-05-08T22:24:11.440Z,20.47
2023-05-08T22:26:56.821Z,22.20
2023-05-08T22:29:37.916Z,21.57
2023-05-08T22:32:29.497Z,20.77
2023-05-08T22:35:06.559Z,21.13
2023-05-08T22:40:55.396Z,21.47
2023-05-08T22:43:31.652Z,20.47
2023-05-08T22:46:06.515Z,21.37
2023-05-08T22:48:49.980Z,20.93
2023-05-08T22:51:27.672Z,20.90
2023-05-08T22:54:04.574Z,20.37
2023-05-08T22:56:46.213Z,19.80
2023-05-08T22:59:31.849Z,21.37
2023-05-08T23:02:10.009Z,20.17
2023-05-08T23:04:49.436Z,20.43
2023-05-08T23:07:40.972Z,20.00
2023-05-08T23:10:18.958Z,21.07
2023-05-08T23:12:50.493Z,20.00
2023-05-08T23:15:22.924Z,20.50
2023-05-08T23:17:56.871Z,20.73
2023-05-08T23:20:30.212Z,20.70
2023-05-08T23:22:58.537Z,20.53
2023-05-08T23:25:41.944Z,21.20
2023-05-08T23:31:13.816Z,20.70
2023-05-08T23:33:44.412Z,21.27
2023-05-08T23:36:22.769Z,20.27
2023-05-08T23:39:00.876Z,20.00
2023-05-08T23:41:39.762Z,19.70
2023-05-08T23:44:31.729Z,20.33
2023-05-08T23:47:14.705Z,20.20
2023-05-08T23:49:52.467Z,19.77
2023-05-08T23:52:44.940Z,20.23
2023-05-08T23:55:38.923Z,19.37
2023-05-08T23:58:22.447Z,19.87
